Time;durP1;ratioP1;P1;durP2;ratioP2;P2;SDS_P1;SDS_P2;PMS_P1;PMS_P2;Temp;Humidity;BMP_temperature;BMP_pressure;BME280_temperature;BME280_humidity;BME280_pressure;Samples;Min_cycle;Max_cycle;Signal;HPM_P1;HPM_P2
2021/03/03 00:00:16;;;;;;;33.17;19.10;;;;;;;5.02;74.94;102942.28;5096830;28;20036;-42
2021/03/03 00:02:42;;;;;;;28.88;18.98;;;;;;;4.95;73.82;102938.50;5096654;28;20028;-42
2021/03/03 00:05:09;;;;;;;30.88;18.75;;;;;;;4.89;74.94;102939.91;5096651;28;20024;-42
2021/03/03 00:07:34;;;;;;;;;;;;;;;5.05;74.44;102935.78;5096734;28;20024;-42
2021/03/03 00:09:59;;;;;;;30.63;18.07;;;;;;;4.85;75.74;102941.19;5096956;28;19908;-42
2021/03/03 00:12:24;;;;;;;28.97;17.57;;;;;;;4.84;74.61;102939.50;5096278;28;20020;-42
2021/03/03 00:14:50;;;;;;;28.60;18.57;;;;;;;4.81;76.46;102939.75;5096627;28;20391;-42
2021/03/03 00:17:15;;;;;;;27.37;17.90;;;;;;;4.77;75.57;102937.50;5096466;28;20412;-42
2021/03/03 00:19:40;;;;;;;29.07;18.30;;;;;;;4.72;75.80;102937.94;5096223;28;20103;-42
2021/03/03 00:22:06;;;;;;;26.90;17.00;;;;;;;4.71;76.66;102949.66;5095855;28;20027;-42
2021/03/03 00:24:31;;;;;;;28.80;18.10;;;;;;;4.68;76.16;102946.38;5096548;28;20030;-42
2021/03/03 00:26:56;;;;;;;27.03;17.53;;;;;;;4.66;75.48;102943.88;5095735;28;20027;-42
2021/03/03 00:29:22;;;;;;;29.07;18.60;;;;;;;4.67;76.60;102944.69;5096241;28;20032;-42
2021/03/03 00:31:47;;;;;;;26.47;16.00;;;;;;;4.53;74.29;102949.47;5096191;28;20032;-42
2021/03/03 00:34:12;;;;;;;26.83;18.33;;;;;;;4.55;76.60;102947.53;5096243;28;20487;-42
2021/03/03 00:36:38;;;;;;;33.00;18.43;;;;;;;4.56;75.01;102948.38;5095576;28;20020;-42
2021/03/03 00:39:03;;;;;;;31.70;18.73;;;;;;;4.53;76.45;102951.31;5095735;28;20028;-42
2021/03/03 00:41:29;;;;;;;30.83;16.55;;;;;;;4.63;78.17;102946.81;5095761;28;20028;-42
2021/03/03 00:43:54;;;;;;;26.53;17.33;;;;;;;4.69;77.39;102948.09;5095742;28;20039;-42
2021/03/03 00:46:19;;;;;;;26.50;16.73;;;;;;;4.60;74.69;102941.75;5095604;28;20061;-42
2021/03/03 00:48:44;;;;;;;29.47;17.30;;;;;;;4.62;76.40;102939.75;5095594;28;20028;-42
2021/03/03 00:51:10;;;;;;;26.33;15.73;;;;;;;4.62;77.26;102947.81;5095550;28;20111;-42
2021/03/03 00:53:35;;;;;;;24.80;16.63;;;;;;;4.58;75.82;102941.03;5096079;28;20047;-42
2021/03/03 00:56:00;;;;;;;27.33;16.93;;;;;;;4.46;76.00;102943.00;5095342;28;20052;-42
2021/03/03 00:58:26;;;;;;;27.13;17.93;;;;;;;4.48;76.62;102937.50;5095654;28;20039;-42
2021/03/03 01:00:52;;;;;;;26.00;17.13;;;;;;;4.49;77.38;102941.88;5095897;28;20081;-42
2021/03/03 01:03:17;;;;;;;23.53;17.17;;;;;;;4.47;76.21;102944.69;5095317;28;20464;-42
2021/03/03 01:05:43;;;;;;;26.97;17.63;;;;;;;4.43;76.27;102934.38;5095219;28;20468;-42
2021/03/03 01:08:09;;;;;;;25.35;17.55;;;;;;;4.37;76.59;102936.66;5094916;28;20060;-42
2021/03/03 01:10:35;;;;;;;27.27;18.55;;;;;;;4.29;75.78;102936.47;5095361;28;20464;-42
2021/03/03 01:13:00;;;;;;;28.48;18.70;;;;;;;4.27;77.44;102934.94;5094833;28;20043;-42
2021/03/03 01:15:26;;;;;;;27.53;16.43;;;;;;;4.34;77.24;102938.75;5095705;28;20032;-42
2021/03/03 01:17:54;;;;;;;29.85;17.15;;;;;;;4.34;77.33;102936.06;5095034;28;20068;-42
2021/03/03 01:20:20;;;;;;;24.35;16.38;;;;;;;4.37;78.56;102936.66;5095537;28;20363;-42
2021/03/03 01:22:45;;;;;;;25.07;17.10;;;;;;;4.32;76.63;102936.22;5095043;28;20028;-42
2021/03/03 01:25:11;;;;;;;25.97;16.73;;;;;;;4.32;76.25;102930.84;5094593;28;20065;-42
2021/03/03 01:27:36;;;;;;;26.98;17.17;;;;;;;4.36;77.25;102937.63;5094847;28;20074;-42
2021/03/03 01:30:03;;;;;;;25.30;16.57;;;;;;;4.32;77.42;102932.69;5093113;28;20062;-42
2021/03/03 01:32:28;;;;;;;25.52;17.67;;;;;;;4.22;76.55;102935.34;5094756;28;20031;-42
2021/03/03 01:34:53;;;;;;;31.40;18.17;;;;;;;4.21;76.08;102927.47;5094765;28;20028;-42
2021/03/03 01:37:19;;;;;;;26.07;16.50;;;;;;;4.35;78.56;102927.91;5094439;28;20081;-42
2021/03/03 01:39:44;;;;;;;28.27;18.47;;;;;;;4.30;77.47;102921.28;5094749;28;20058;-42
2021/03/03 01:42:09;;;;;;;26.83;17.27;;;;;;;4.28;77.85;102921.41;5095499;28;20063;-42
2021/03/03 01:44:34;;;;;;;25.37;17.43;;;;;;;4.22;77.98;102923.81;5094744;28;20028;-42
2021/03/03 01:47:00;;;;;;;27.47;16.60;;;;;;;4.10;76.26;102926.59;5094823;28;20115;-42
2021/03/03 01:49:25;;;;;;;30.37;18.53;;;;;;;4.06;77.56;102925.19;5094107;28;20024;-42
2021/03/03 01:51:50;;;;;;;26.50;17.33;;;;;;;4.14;78.38;102913.75;5094373;28;20165;-42
2021/03/03 01:54:16;;;;;;;27.27;16.53;;;;;;;4.17;77.96;102926.03;5094783;28;20030;-42
2021/03/03 01:56:41;;;;;;;26.87;17.60;;;;;;;4.10;77.92;102917.72;5094130;28;20507;-42
2021/03/03 01:59:06;;;;;;;29.30;17.97;;;;;;;4.11;76.88;102916.75;5094353;28;20148;-42
2021/03/03 02:01:32;;;;;;;23.60;15.87;;;;;;;4.04;76.52;102908.38;5094837;28;20047;-42
2021/03/03 02:03:57;;;;;;;26.63;17.13;;;;;;;4.00;78.21;102908.81;5094489;28;20024;-42
2021/03/03 02:06:41;;;;;;;20.87;13.53;;;;;;;4.16;79.09;102903.78;5094069;28;20028;-42
2021/03/03 02:09:07;;;;;;;23.52;15.02;;;;;;;4.19;78.96;102906.16;5094954;28;20418;-42
2021/03/03 02:12:02;;;;;;;27.38;16.40;;;;;;;4.20;78.67;102893.63;5094070;28;20102;-42
2021/03/03 02:14:28;;;;;;;22.23;15.57;;;;;;;4.27;78.60;102894.78;5094810;28;20055;-42
2021/03/03 02:16:55;;;;;;;;;;;;;;;4.38;77.19;102897.31;5094417;28;20032;-42
2021/03/03 02:19:30;;;;;;;28.90;16.42;;;;;;;4.27;77.68;102898.28;5094072;28;19908;-42
2021/03/03 02:22:08;;;;;;;26.88;15.93;;;;;;;4.28;78.48;102891.94;5094161;28;20388;-42
2021/03/03 02:24:44;;;;;;;26.38;16.65;;;;;;;4.23;78.04;102894.19;5093753;28;20046;-42
2021/03/03 02:27:10;;;;;;;25.10;16.35;;;;;;;4.18;78.00;102891.09;5093977;28;20449;-42
2021/03/03 02:29:36;;;;;;;24.42;17.02;;;;;;;4.11;77.00;102884.59;5093787;28;20063;-42
2021/03/03 02:32:02;;;;;;;25.65;16.67;;;;;;;4.14;78.45;102885.16;5093441;28;20020;-42
2021/03/03 02:34:28;;;;;;;25.85;16.98;;;;;;;4.15;78.72;102886.03;5094364;28;20035;-42
2021/03/03 02:36:56;;;;;;;26.38;17.33;;;;;;;4.17;78.59;102878.69;5093452;28;20036;-42
2021/03/03 02:39:24;;;;;;;23.88;16.90;;;;;;;4.22;79.00;102879.13;5093681;28;20391;-42
2021/03/03 02:41:50;;;;;;;27.95;16.50;;;;;;;4.27;79.53;102878.69;5093639;28;20055;-42
2021/03/03 02:44:16;;;;;;;24.48;16.13;;;;;;;4.12;76.69;102872.91;5093268;28;20514;-42
2021/03/03 02:46:46;;;;;;;25.75;15.27;;;;;;;4.18;78.73;102875.03;5093664;28;20107;-42
2021/03/03 02:49:13;;;;;;;24.38;15.55;;;;;;;4.17;78.97;102870.66;5093837;28;20035;-42
2021/03/03 02:51:39;;;;;;;23.88;14.52;;;;;;;4.16;78.71;102870.81;5093518;28;20020;-42
2021/03/03 02:54:10;;;;;;;29.50;17.52;;;;;;;4.08;78.70;102866.97;5093600;28;20035;-42
2021/03/03 02:56:35;;;;;;;29.83;18.02;;;;;;;4.05;78.61;102863.72;5094068;28;20056;-42
2021/03/03 02:59:07;;;;;;;25.87;15.90;;;;;;;4.02;78.12;102864.00;5093775;28;20435;-42
2021/03/03 03:01:33;;;;;;;25.73;16.95;;;;;;;3.93;78.68;102864.84;5095788;28;20106;-42
2021/03/03 03:04:01;;;;;;;26.92;16.20;;;;;;;3.86;77.52;102864.56;5098477;28;20095;-42
2021/03/03 03:06:38;;;;;;;24.65;15.68;;;;;;;3.90;79.13;102862.44;5097546;28;20020;-42
2021/03/03 03:09:07;;;;;;;22.70;14.80;;;;;;;3.95;79.74;102860.19;5097897;28;20035;-42
2021/03/03 03:11:35;;;;;;;25.15;16.63;;;;;;;3.97;79.01;102858.22;5097489;28;20383;-42
2021/03/03 03:14:08;;;;;;;26.48;17.88;;;;;;;3.93;78.47;102859.50;5097228;28;20063;-42
2021/03/03 03:16:36;;;;;;;25.45;16.70;;;;;;;3.82;77.18;102863.13;5097447;28;20031;-42
2021/03/03 03:19:05;;;;;;;24.88;16.52;;;;;;;3.69;77.80;102858.03;5097430;28;20051;-42
2021/03/03 03:21:36;;;;;;;24.55;16.00;;;;;;;3.60;78.79;102843.63;5098072;28;20028;-42
2021/03/03 03:24:03;;;;;;;26.08;15.77;;;;;;;3.79;80.22;102856.22;5097851;28;20065;-42
2021/03/03 03:26:31;;;;;;;27.10;16.98;;;;;;;3.71;79.08;102861.41;5097078;28;20044;-42
2021/03/03 03:28:57;;;;;;;25.23;15.70;;;;;;;3.82;79.51;102863.13;5097137;28;20032;-42
2021/03/03 03:31:23;;;;;;;27.52;17.65;;;;;;;3.73;79.10;102859.44;5096797;28;20020;-42
2021/03/03 03:33:52;;;;;;;24.40;17.02;;;;;;;3.80;79.60;102863.25;5097423;28;20039;-42
2021/03/03 03:36:18;;;;;;;28.23;16.38;;;;;;;3.84;80.33;102870.03;5097454;28;20028;-42
2021/03/03 03:38:44;;;;;;;26.88;16.83;;;;;;;3.85;79.98;102863.69;5097326;28;20077;-42
2021/03/03 03:41:10;;;;;;;26.73;17.00;;;;;;;3.88;80.18;102865.25;5096974;28;20468;-42
2021/03/03 03:43:36;;;;;;;23.75;16.55;;;;;;;3.85;79.25;102876.22;5097275;28;20410;-42
2021/03/03 03:46:02;;;;;;;29.50;18.02;;;;;;;3.86;78.68;102880.63;5097649;28;20485;-42
2021/03/03 03:48:29;;;;;;;27.77;17.27;;;;;;;3.81;79.27;102880.19;5096831;28;20085;-42
2021/03/03 03:50:55;;;;;;;26.90;16.98;;;;;;;3.72;79.12;102872.97;5097095;28;20031;-43
2021/03/03 03:53:21;;;;;;;32.53;18.08;;;;;;;3.75;80.44;102876.19;5096954;28;20448;-42
2021/03/03 03:55:46;;;;;;;26.63;15.57;;;;;;;3.79;79.92;102880.28;5097133;28;20097;-42
2021/03/03 03:58:11;;;;;;;29.27;17.60;;;;;;;3.71;78.70;102877.47;5096594;28;20028;-42
2021/03/03 04:00:37;;;;;;;29.43;18.60;;;;;;;3.68;79.32;102883.09;5096601;28;20115;-43
2021/03/03 04:03:02;;;;;;;23.85;16.63;;;;;;;3.62;78.58;102880.97;5096516;28;20036;-42
2021/03/03 04:05:28;;;;;;;23.77;16.30;;;;;;;3.61;79.18;102881.91;5097322;28;20040;-42
2021/03/03 04:07:55;;;;;;;27.73;16.83;;;;;;;3.54;79.67;102886.97;5096769;28;20035;-42
2021/03/03 04:10:25;;;;;;;32.38;19.50;;;;;;;3.52;79.72;102882.75;5096203;28;20025;-43
2021/03/03 04:12:51;;;;;;;30.58;18.33;;;;;;;3.58;79.67;102892.91;5095609;28;20114;-42
2021/03/03 04:15:17;;;;;;;26.52;16.85;;;;;;;3.60;80.61;102890.94;5096075;28;20055;-43
2021/03/03 04:17:43;;;;;;;27.90;17.90;;;;;;;3.46;79.22;102888.63;5096245;28;20368;-42
2021/03/03 04:20:10;;;;;;;25.92;16.33;;;;;;;3.48;78.59;102890.19;5096244;28;20028;-42
2021/03/03 04:22:36;;;;;;;23.15;14.52;;;;;;;3.66;82.41;102884.19;5096077;28;20036;-42
2021/03/03 04:25:03;;;;;;;24.58;15.88;;;;;;;3.67;81.68;102891.25;5096103;28;20355;-42
2021/03/03 04:27:28;;;;;;;28.08;17.40;;;;;;;3.65;80.72;102882.50;5095963;28;20035;-42
2021/03/03 04:29:54;;;;;;;27.43;17.03;;;;;;;3.72;80.29;102886.34;5096108;28;20028;-42
2021/03/03 04:32:19;;;;;;;25.97;17.43;;;;;;;3.68;80.30;102892.94;5096297;28;20046;-42
2021/03/03 04:34:44;;;;;;;24.77;16.13;;;;;;;3.64;79.55;102887.00;5095300;28;20039;-42
2021/03/03 04:37:10;;;;;;;33.20;18.03;;;;;;;3.57;80.72;102881.38;5096423;28;20023;-42
2021/03/03 04:39:35;;;;;;;31.57;18.13;;;;;;;3.50;80.43;102890.06;5096178;28;20027;-42
2021/03/03 04:42:02;;;;;;;24.50;16.13;;;;;;;3.56;80.65;102886.84;5095825;28;20467;-42
2021/03/03 04:44:28;;;;;;;28.08;18.42;;;;;;;3.46;79.70;102884.13;5095942;28;20099;-43
2021/03/03 04:46:53;;;;;;;30.13;16.97;;;;;;;3.46;79.58;102877.94;5096017;28;20111;-42
2021/03/03 04:49:18;;;;;;;27.33;17.17;;;;;;;3.48;80.61;102866.13;5095701;28;20379;-42
2021/03/03 04:51:43;;;;;;;25.33;17.03;;;;;;;3.47;80.07;102872.47;5095938;28;20063;-42
2021/03/03 04:54:09;;;;;;;26.73;17.57;;;;;;;3.41;79.54;102881.00;5095663;28;20455;-42
2021/03/03 04:56:34;;;;;;;26.17;16.00;;;;;;;3.54;81.49;102875.44;5096176;28;20208;-42
2021/03/03 04:58:59;;;;;;;24.20;16.70;;;;;;;3.48;78.95;102876.81;5096390;28;20044;-42
2021/03/03 05:01:25;;;;;;;26.13;17.03;;;;;;;3.49;79.95;102877.66;5095157;28;20383;-42
2021/03/03 05:03:50;;;;;;;28.80;17.27;;;;;;;3.51;81.03;102875.69;5095163;28;20024;-42
2021/03/03 05:06:15;;;;;;;26.00;16.00;;;;;;;3.55;80.91;102869.09;5094102;28;20028;-42
2021/03/03 05:08:41;;;;;;;27.67;16.80;;;;;;;3.55;81.12;102877.13;5095641;28;20111;-42
2021/03/03 05:11:06;;;;;;;28.10;17.10;;;;;;;3.52;80.62;102878.25;5094951;28;20032;-42
2021/03/03 05:13:32;;;;;;;27.73;18.35;;;;;;;3.50;80.57;102879.34;5094262;28;20376;-42
2021/03/03 05:15:58;;;;;;;23.17;14.80;;;;;;;3.63;82.00;102876.47;5095449;28;20028;-42
2021/03/03 05:18:23;;;;;;;25.33;15.27;;;;;;;3.59;81.74;102875.88;5094742;28;20282;-42
2021/03/03 05:20:50;;;;;;;25.93;16.97;;;;;;;3.54;81.07;102875.44;5095347;28;20020;-42
2021/03/03 05:23:31;;;;;;;25.70;16.25;;;;;;;3.64;81.42;102876.31;5095224;28;20032;-42
2021/03/03 05:25:57;;;;;;;27.00;16.38;;;;;;;3.64;80.47;102875.47;5094159;28;20036;-42
2021/03/03 05:28:23;;;;;;;23.23;15.40;;;;;;;3.56;79.71;102868.09;5094887;28;20035;-42
2021/03/03 05:30:48;;;;;;;26.53;16.30;;;;;;;3.55;79.69;102869.94;5095638;28;20024;-42
2021/03/03 05:33:35;;;;;;;21.27;14.63;;;;;;;3.54;79.60;102859.38;5094708;28;20028;-42
2021/03/03 05:36:05;;;;;;;26.33;16.77;;;;;;;3.54;81.45;102865.56;5094799;28;20039;-42
2021/03/03 05:38:36;;;;;;;26.65;17.48;;;;;;;3.50;80.64;102863.31;5094892;28;20429;-42
2021/03/03 05:41:02;;;;;;;24.02;15.23;;;;;;;3.60;81.35;102859.69;5094664;28;20063;-42
2021/03/03 05:43:29;;;;;;;24.00;17.45;;;;;;;3.55;81.20;102867.25;5094341;28;20062;-42
2021/03/03 05:45:57;;;;;;;30.10;18.02;;;;;;;3.53;82.05;102855.03;5095027;28;20111;-42
2021/03/03 05:48:23;;;;;;;25.17;16.48;;;;;;;3.53;80.41;102857.69;5094247;28;20466;-42
2021/03/03 05:50:57;;;;;;;23.93;16.17;;;;;;;3.50;80.38;102857.97;5095035;28;20032;-42
2021/03/03 05:53:24;;;;;;;25.27;15.88;;;;;;;3.48;80.88;102852.75;5095192;28;20414;-42
2021/03/03 05:56:12;;;;;;;27.77;17.55;;;;;;;3.45;81.17;102854.84;5094675;28;20048;-42
2021/03/03 05:58:39;;;;;;;23.77;15.25;;;;;;;3.49;81.72;102851.75;5093989;28;20392;-42
2021/03/03 06:01:07;;;;;;;27.55;16.02;;;;;;;3.46;81.15;102856.53;5094537;28;20027;-42
2021/03/03 06:03:32;;;;;;;24.48;16.50;;;;;;;3.43;80.78;102857.66;5094157;28;20020;-42
2021/03/03 06:05:58;;;;;;;25.35;16.42;;;;;;;3.51;81.52;102870.34;5093861;28;20070;-42
2021/03/03 06:08:25;;;;;;;23.80;15.77;;;;;;;3.45;79.73;102870.88;5094115;28;20031;-42
2021/03/03 06:10:51;;;;;;;26.77;16.92;;;;;;;3.49;81.47;102869.63;5094124;28;20031;-42
2021/03/03 06:13:17;;;;;;;20.48;14.32;;;;;;;3.57;82.24;102869.81;5094325;28;20379;-42
2021/03/03 06:15:43;;;;;;;24.70;15.85;;;;;;;3.51;81.18;102871.19;5094325;28;20520;-42
2021/03/03 06:18:11;;;;;;;26.63;16.63;;;;;;;3.52;81.16;102867.56;5093740;28;20028;-42
2021/03/03 06:20:38;;;;;;;25.30;15.85;;;;;;;3.59;82.91;102870.53;5094793;28;20101;-42
2021/03/03 06:23:18;;;;;;;23.42;16.35;;;;;;;3.56;81.97;102866.31;5093836;28;20036;-42
2021/03/03 06:25:47;;;;;;;27.25;15.88;;;;;;;3.58;81.58;102874.19;5094187;28;20024;-42
2021/03/03 06:28:34;;;;;;;23.30;15.50;;;;;;;3.48;79.41;102879.50;5094580;28;20027;-42
2021/03/03 06:31:01;;;;;;;23.52;15.02;;;;;;;3.55;82.17;102877.13;5094917;28;20070;-41
2021/03/03 06:33:26;;;;;;;24.70;16.95;;;;;;;3.42;79.10;102882.72;5093699;28;20056;-41
2021/03/03 06:35:53;;;;;;;27.42;16.25;;;;;;;3.46;81.04;102885.94;5094240;28;20073;-42
2021/03/03 06:38:27;;;;;;;25.27;16.75;;;;;;;3.50;81.32;102884.69;5093349;28;20111;-42
2021/03/03 06:40:58;;;;;;;25.33;14.63;;;;;;;3.56;82.15;102887.72;5093348;28;20057;-42
2021/03/03 06:43:29;;;;;;;30.27;17.88;;;;;;;3.52;81.34;102891.63;5093488;28;20032;-42
2021/03/03 06:45:55;;;;;;;28.98;18.65;;;;;;;3.52;81.38;102886.28;5093550;28;20039;-42
2021/03/03 06:48:37;;;;;;;29.60;16.08;;;;;;;3.73;82.29;102894.22;5093447;28;20028;-42
2021/03/03 06:51:38;;;;;;;27.90;16.75;;;;;;;3.83;81.59;102887.06;5094157;28;20036;-42
2021/03/03 06:54:17;;;;;;;21.02;14.40;;;;;;;3.92;82.49;102898.78;5071449;28;20043;-42
2021/03/03 06:56:45;;;;;;;25.10;14.77;;;;;;;4.01;82.63;102897.97;5071274;28;20235;-42
2021/03/03 06:59:15;;;;;;;25.40;16.83;;;;;;;3.99;82.44;102897.25;5071446;28;20041;-43
2021/03/03 07:01:42;;;;;;;29.73;17.70;;;;;;;3.99;81.61;102901.75;5071531;28;20508;-42
2021/03/03 07:04:18;;;;;;;30.08;18.27;;;;;;;3.96;81.13;102904.72;5071186;28;20032;-42
2021/03/03 07:06:43;;;;;;;26.30;17.05;;;;;;;4.05;81.47;102909.22;5070864;28;20056;-42
2021/03/03 07:09:09;;;;;;;23.13;15.70;;;;;;;4.24;82.61;102916.47;5071340;28;20125;-42
2021/03/03 07:11:34;;;;;;;26.70;16.40;;;;;;;4.37;82.90;102920.56;5070672;28;20036;-42
2021/03/03 07:14:12;;;;;;;29.30;19.03;;;;;;;4.27;81.03;102925.06;5070629;28;20044;-42
2021/03/03 07:17:06;;;;;;;31.98;21.05;;;;;;;4.28;80.82;102929.44;5070688;28;20044;-42
2021/03/03 07:19:33;;;;;;;31.20;19.45;;;;;;;4.26;80.34;102930.56;5071571;28;20046;-42
2021/03/03 07:21:59;;;;;;;45.75;26.20;;;;;;;4.45;81.60;102940.47;5070175;28;20047;-42
2021/03/03 07:24:25;;;;;;;44.72;28.38;;;;;;;4.52;81.52;102936.25;5070923;28;20496;-42
2021/03/03 07:26:51;;;;;;;60.55;33.42;;;;;;;4.62;81.17;102929.88;5071053;28;20407;-42
2021/03/03 07:29:17;;;;;;;60.42;35.03;;;;;;;4.72;81.03;102927.22;5093272;28;20024;-42
2021/03/03 07:31:43;;;;;;;59.28;32.92;;;;;;;4.79;80.55;102925.66;5093144;28;20024;-42
2021/03/03 07:34:09;;;;;;;42.90;25.88;;;;;;;4.88;80.70;102923.94;5093735;28;20078;-42
2021/03/03 07:36:36;;;;;;;36.40;23.63;;;;;;;4.95;80.03;102927.75;5093470;28;20031;-42
2021/03/03 07:39:06;;;;;;;43.47;26.60;;;;;;;4.98;80.28;102924.81;5093395;28;20384;-42
2021/03/03 07:41:45;;;;;;;34.97;22.83;;;;;;;5.09;80.35;102921.13;5093951;28;20028;-42
2021/03/03 07:44:14;;;;;;;38.17;22.33;;;;;;;5.12;80.19;102923.50;5093109;28;20114;-42
2021/03/03 07:46:40;;;;;;;31.05;20.63;;;;;;;5.22;80.28;102927.03;5092920;28;20432;-42
2021/03/03 07:49:08;;;;;;;25.88;18.63;;;;;;;5.37;80.61;102922.88;5096227;28;20055;-42
2021/03/03 07:51:35;;;;;;;35.97;21.23;;;;;;;5.38;79.68;102924.56;5096717;28;20024;-42
2021/03/03 07:54:00;;;;;;;29.40;19.23;;;;;;;5.53;80.54;102910.69;5096909;28;20487;-42
2021/03/03 07:56:27;;;;;;;32.30;19.00;;;;;;;5.61;80.51;102910.75;5097705;28;20056;-42
2021/03/03 07:58:52;;;;;;;30.00;19.55;;;;;;;5.72;80.32;102909.75;5096491;28;20510;-42
2021/03/03 08:01:18;;;;;;;34.45;21.90;;;;;;;5.79;79.64;102910.84;5097130;28;20020;-42
2021/03/03 08:03:45;;;;;;;35.50;22.17;;;;;;;5.91;79.15;102909.66;5096805;28;20085;-42
2021/03/03 08:06:19;;;;;;;32.08;21.08;;;;;;;6.02;79.32;102916.69;5097200;28;20077;-42
2021/03/03 08:09:05;;;;;;;32.17;21.95;;;;;;;6.13;79.41;102917.31;5096973;28;20028;-42
2021/03/03 08:11:32;;;;;;;35.45;22.55;;;;;;;6.19;78.80;102921.22;5096362;28;20391;-42
2021/03/03 08:13:58;;;;;;;38.08;23.42;;;;;;;6.26;78.50;102913.44;5096619;28;20032;-42
2021/03/03 08:16:23;;;;;;;38.33;23.58;;;;;;;6.33;78.37;102914.50;5096301;28;20032;-42
2021/03/03 08:18:56;;;;;;;35.87;23.63;;;;;;;6.38;78.92;102913.03;5096653;28;20028;-42
2021/03/03 08:21:22;;;;;;;39.75;25.08;;;;;;;6.42;78.81;102903.66;5096511;28;20060;-42
2021/03/03 08:23:58;;;;;;;37.58;25.13;;;;;;;6.53;78.96;102917.88;5095883;28;20097;-42
2021/03/03 08:26:23;;;;;;;35.33;24.85;;;;;;;6.58;78.77;102924.47;5096006;28;20413;-42
2021/03/03 08:28:50;;;;;;;41.20;26.17;;;;;;;6.68;79.16;102929.78;5096168;28;20028;-42
2021/03/03 08:31:15;;;;;;;38.20;26.23;;;;;;;6.76;79.21;102920.94;5095993;28;20028;-42
2021/03/03 08:33:50;;;;;;;39.53;26.80;;;;;;;6.84;78.56;102916.50;5096334;28;20373;-42
2021/03/03 08:36:21;;;;;;;40.50;26.02;;;;;;;7.00;78.22;102920.31;5096203;28;20059;-42
2021/03/03 08:39:09;;;;;;;38.97;26.60;;;;;;;7.12;78.47;102919.88;5096152;28;20024;-42
2021/03/03 08:41:36;;;;;;;40.05;27.63;;;;;;;7.26;78.92;102907.69;5088983;28;20169;-42
2021/03/03 08:44:05;;;;;;;45.45;28.10;;;;;;;7.38;78.50;102908.28;5096312;28;20097;-42
2021/03/03 08:46:31;;;;;;;46.17;29.95;;;;;;;7.47;77.64;102900.09;5095641;28;20020;-42
2021/03/03 08:48:56;;;;;;;43.60;28.37;;;;;;;7.60;78.28;102896.09;5096161;28;20097;-42
2021/03/03 08:51:24;;;;;;;44.03;28.03;;;;;;;7.70;77.48;102896.81;5096205;28;20020;-42
2021/03/03 08:53:53;;;;;;;44.83;30.27;;;;;;;7.80;76.11;102897.53;5095666;28;20016;-42
2021/03/03 08:56:38;;;;;;;45.00;29.98;;;;;;;7.93;77.05;102906.00;5096109;28;20044;-42
2021/03/03 08:59:06;;;;;;;49.22;29.85;;;;;;;8.05;77.17;102903.84;5095851;28;20035;-42
2021/03/03 09:01:53;;;;;;;39.97;28.80;;;;;;;8.19;76.83;102900.50;5095422;28;20056;-42
2021/03/03 09:04:40;;;;;;;42.42;29.98;;;;;;;8.27;75.78;102902.38;5095926;28;20028;-42
2021/03/03 09:07:07;;;;;;;38.92;28.00;;;;;;;8.34;76.04;102900.69;5094944;28;20472;-42
2021/03/03 09:09:49;;;;;;;42.85;30.95;;;;;;;8.37;75.19;102905.81;5095575;28;20032;-42
2021/03/03 09:12:16;;;;;;;44.17;32.40;;;;;;;8.40;75.50;102896.56;5095153;28;20486;-42
2021/03/03 09:14:43;;;;;;;49.63;33.22;;;;;;;8.41;75.29;102896.38;5095215;28;20059;-42
2021/03/03 09:17:12;;;;;;;48.65;32.22;;;;;;;8.44;75.84;102890.66;5095345;28;20024;-42
2021/03/03 09:19:38;;;;;;;48.50;32.47;;;;;;;8.50;75.20;102886.44;5095091;28;20035;-42
2021/03/03 09:22:15;;;;;;;50.75;31.63;;;;;;;8.63;75.96;102885.94;5095026;28;20028;-42
2021/03/03 09:24:41;;;;;;;46.45;31.38;;;;;;;8.72;76.14;102882.22;5095277;28;20028;-42
2021/03/03 09:27:08;;;;;;;45.25;33.15;;;;;;;8.82;74.82;102879.34;5094715;28;20028;-42
2021/03/03 09:29:36;;;;;;;42.33;31.85;;;;;;;8.96;75.33;102881.38;5095182;28;20034;-42
2021/03/03 09:32:13;;;;;;;45.45;32.55;;;;;;;9.11;75.08;102881.50;5094435;28;20035;-42
2021/03/03 09:34:49;;;;;;;44.85;31.83;;;;;;;9.24;74.63;102879.13;5095658;28;20020;-42
2021/03/03 09:37:15;;;;;;;49.92;33.90;;;;;;;9.38;73.92;102875.72;5095055;28;20039;-42
2021/03/03 09:39:42;;;;;;;46.80;35.08;;;;;;;9.47;73.29;102876.53;5095142;28;20024;-42
2021/03/03 09:42:10;;;;;;;52.78;35.60;;;;;;;9.54;73.26;102878.34;5094237;28;20353;-42
2021/03/03 09:44:52;;;;;;;44.65;33.67;;;;;;;9.66;72.71;102880.66;5094543;28;20031;-42
2021/03/03 09:47:29;;;;;;;47.13;35.70;;;;;;;9.73;72.19;102877.09;5094564;28;20032;-42
2021/03/03 09:49:56;;;;;;;49.92;35.05;;;;;;;9.80;71.79;102871.81;5095086;28;20372;-42
2021/03/03 09:52:22;;;;;;;49.65;34.83;;;;;;;9.84;71.07;102869.63;5094547;28;20035;-42
2021/03/03 09:54:48;;;;;;;;;;;;;;;10.01;72.89;102871.22;5094765;28;20031;-42
2021/03/03 09:57:20;;;;;;;47.13;34.67;;;;;;;10.05;70.84;102867.13;5093331;28;19912;-42
2021/03/03 09:59:48;;;;;;;49.47;36.60;;;;;;;10.13;70.27;102869.78;5094288;28;20028;-42
2021/03/03 10:02:22;;;;;;;50.30;35.65;;;;;;;10.23;70.66;102870.38;5094306;28;20063;-42
2021/03/03 10:04:48;;;;;;;51.95;36.20;;;;;;;10.28;70.28;102872.59;5092849;28;20392;-42
2021/03/03 10:07:21;;;;;;;52.92;36.38;;;;;;;10.38;70.44;102867.78;5094756;28;20028;-42
2021/03/03 10:09:49;;;;;;;50.78;34.55;;;;;;;10.42;69.75;102866.41;5094841;28;20020;-42
2021/03/03 10:12:19;;;;;;;49.22;35.17;;;;;;;10.53;70.01;102863.25;5094442;28;20106;-42
2021/03/03 10:14:53;;;;;;;50.28;35.85;;;;;;;10.61;70.13;102864.22;5094559;28;20034;-42
2021/03/03 10:17:28;;;;;;;46.80;34.63;;;;;;;10.74;69.36;102862.59;5094738;28;20017;-42
2021/03/03 10:19:53;;;;;;;47.55;35.83;;;;;;;10.77;69.18;102859.50;5094817;28;20111;-42
2021/03/03 10:22:20;;;;;;;49.80;38.00;;;;;;;10.86;68.71;102864.84;5093650;28;20112;-42
2021/03/03 10:25:04;;;;;;;47.17;35.55;;;;;;;10.91;68.32;102860.56;5093875;28;20052;-42
2021/03/03 10:27:41;;;;;;;42.80;34.42;;;;;;;10.96;68.63;102866.25;5092819;28;20040;-42
2021/03/03 10:30:25;;;;;;;47.08;35.03;;;;;;;11.02;69.00;102862.81;5094622;28;20059;-42
2021/03/03 10:32:53;;;;;;;47.97;35.72;;;;;;;11.01;67.37;102857.59;5094117;28;20027;-42
2021/03/03 10:35:19;;;;;;;57.85;36.33;;;;;;;11.00;67.50;102867.59;5094588;28;20024;-42
2021/03/03 10:37:44;;;;;;;47.13;34.85;;;;;;;11.08;67.12;102874.78;5093736;28;20028;-42
2021/03/03 10:40:12;;;;;;;51.97;36.53;;;;;;;11.25;67.52;102867.31;5093728;28;20460;-42
2021/03/03 10:42:37;;;;;;;48.75;36.45;;;;;;;11.40;67.40;102865.44;5093785;28;20032;-42
2021/03/03 10:45:03;;;;;;;47.50;35.60;;;;;;;11.60;66.89;102866.56;5093928;28;20081;-42
2021/03/03 10:47:40;;;;;;;52.25;37.05;;;;;;;11.73;66.95;102859.63;5093565;28;20077;-42
2021/03/03 10:50:08;;;;;;;49.90;36.78;;;;;;;11.84;65.40;102862.72;5093559;28;20032;-42
2021/03/03 10:52:33;;;;;;;55.08;39.00;;;;;;;11.92;65.10;102855.53;5094276;28;20371;-42
2021/03/03 10:54:59;;;;;;;51.13;37.87;;;;;;;11.99;65.25;102848.28;5093605;28;20119;-42
2021/03/03 10:57:25;;;;;;;50.07;37.13;;;;;;;12.02;64.30;102850.63;5093508;28;20122;-42
2021/03/03 11:00:01;;;;;;;55.17;37.92;;;;;;;12.05;64.76;102842.97;5094316;28;20032;-42
2021/03/03 11:02:27;;;;;;;50.83;37.60;;;;;;;12.20;64.59;102845.63;5093742;28;20348;-42
2021/03/03 11:04:53;;;;;;;49.93;36.03;;;;;;;12.24;63.98;102846.03;5093656;28;20024;-42
2021/03/03 11:07:18;;;;;;;51.03;37.88;;;;;;;12.27;63.08;102854.66;5093667;28;20040;-42
2021/03/03 11:09:52;;;;;;;51.17;37.73;;;;;;;12.35;64.44;102851.81;5093425;28;20473;-42
2021/03/03 11:12:25;;;;;;;54.75;38.17;;;;;;;12.39;63.43;102846.81;5093307;28;20035;-42
2021/03/03 11:14:50;;;;;;;54.60;38.70;;;;;;;12.43;63.26;102839.13;5094162;28;20039;-42
2021/03/03 11:17:16;;;;;;;57.07;38.90;;;;;;;12.50;62.13;102859.03;5093344;28;20383;-42
2021/03/03 11:19:41;;;;;;;57.08;39.92;;;;;;;12.55;62.74;102843.84;5093603;28;20047;-42
2021/03/03 11:22:07;;;;;;;54.50;39.30;;;;;;;12.70;62.39;102848.34;5095022;28;20468;-42